Time;durP1;ratioP1;P1;durP2;ratioP2;P2;SDS_P1;SDS_P2;PMS_P1;PMS_P2;Temp;Humidity;BMP_temperature;BMP_pressure;BME280_temperature;BME280_humidity;BME280_pressure;Samples;Min_cycle;Max_cycle;Signal;HPM_P1;HPM_P2
2021/05/26 00:01:30;;;;;;;1.40;1.30;;;12.00;99.90;;;;;;5034621;28;20500;-46
2021/05/26 00:03:57;;;;;;;2.37;1.27;;;12.10;99.90;;;;;;5034526;28;20481;-46
2021/05/26 00:06:23;;;;;;;1.87;1.07;;;12.00;99.90;;;;;;5034455;28;20435;-46
2021/05/26 00:08:50;;;;;;;1.70;1.10;;;12.10;99.90;;;;;;5034107;28;20447;-46
2021/05/26 00:11:17;;;;;;;1.87;1.40;;;12.10;99.90;;;;;;5034315;28;20437;-46
2021/05/26 00:13:44;;;;;;;2.57;1.47;;;12.30;99.90;;;;;;5016408;28;20453;-46
2021/05/26 00:16:11;;;;;;;1.70;1.10;;;12.30;99.90;;;;;;5034107;28;20532;-46
2021/05/26 00:18:38;;;;;;;1.60;1.20;;;12.10;99.90;;;;;;5033902;28;20537;-46
2021/05/26 00:21:06;;;;;;;5.00;1.10;;;12.00;99.90;;;;;;5016453;28;20479;-47
2021/05/26 00:23:32;;;;;;;2.37;1.20;;;12.30;99.90;;;;;;5034171;28;20470;-46
2021/05/26 00:25:59;;;;;;;2.07;1.10;;;11.90;99.90;;;;;;5034091;28;20436;-47
2021/05/26 00:28:25;;;;;;;3.20;1.53;;;11.90;99.90;;;;;;5033514;28;20451;-46
2021/05/26 00:30:53;;;;;;;1.43;1.00;;;11.90;99.90;;;;;;5033903;28;20473;-46
2021/05/26 00:33:20;;;;;;;1.67;1.07;;;12.20;99.90;;;;;;5033884;28;21026;-46
2021/05/26 00:35:46;;;;;;;2.33;1.27;;;12.00;99.90;;;;;;5033929;28;20569;-46
2021/05/26 00:38:13;;;;;;;2.50;1.20;;;12.40;99.90;;;;;;5033508;28;20550;-47
2021/05/26 00:40:40;;;;;;;2.47;1.20;;;11.80;99.90;;;;;;5033786;28;20773;-46
2021/05/26 00:43:08;;;;;;;2.20;1.50;;;12.20;99.90;;;;;;5033639;28;20439;-46
2021/05/26 00:45:34;;;;;;;2.53;1.20;;;12.00;99.90;;;;;;5016038;28;20791;-46
2021/05/26 00:48:00;;;;;;;8.77;1.57;;;11.80;99.90;;;;;;5015633;28;20471;-45
2021/05/26 00:50:29;;;;;;;2.60;1.40;;;12.10;99.90;;;;;;5033549;28;20481;-46
2021/05/26 00:52:58;;;;;;;1.90;1.10;;;11.60;99.90;;;;;;5015952;28;20452;-46
2021/05/26 00:55:24;;;;;;;1.43;1.10;;;11.40;99.90;;;;;;5015658;28;20456;-46
2021/05/26 00:57:51;;;;;;;2.03;1.20;;;11.80;99.90;;;;;;5015397;28;20586;-46
2021/05/26 01:00:23;;;;;;;3.50;2.10;;;11.70;99.90;;;;;;5033246;28;20432;-46
2021/05/26 01:02:56;;;;;;;3.23;1.70;;;12.10;99.90;;;;;;5015560;28;20434;-47
2021/05/26 01:05:23;;;;;;;2.23;1.43;;;12.30;99.90;;;;;;5015508;28;20483;-46
2021/05/26 01:07:51;;;;;;;2.27;1.20;;;12.10;99.90;;;;;;5033162;28;20458;-46
2021/05/26 01:10:20;;;;;;;2.13;1.20;;;12.40;99.90;;;;;;5014400;28;20443;-46
2021/05/26 01:12:52;;;;;;;2.37;1.90;;;12.00;99.90;;;;;;5015529;28;20463;-44
2021/05/26 01:15:19;;;;;;;2.53;1.43;;;12.20;99.90;;;;;;5015434;28;20455;-46
2021/05/26 01:17:47;;;;;;;4.63;1.53;;;12.00;99.90;;;;;;5015039;28;20483;-46
2021/05/26 01:20:22;;;;;;;1.67;1.10;;;12.10;99.90;;;;;;5014953;28;20451;-50
2021/05/26 01:22:49;;;;;;;2.53;1.50;;;11.70;99.90;;;;;;5015388;28;20451;-46
2021/05/26 01:25:17;;;;;;;2.20;1.07;;;11.90;99.90;;;;;;5015202;28;20455;-46
2021/05/26 01:27:43;;;;;;;2.20;1.13;;;12.10;99.90;;;;;;5032945;28;20452;-46
2021/05/26 01:30:10;;;;;;;2.90;1.10;;;11.90;99.90;;;;;;5032720;28;20587;-46
2021/05/26 01:32:45;;;;;;;2.53;1.17;;;11.80;99.90;;;;;;5032986;28;20535;-46
2021/05/26 01:35:14;;;;;;;2.73;1.40;;;11.90;99.90;;;;;;5015040;28;20473;-46
2021/05/26 01:37:42;;;;;;;3.87;1.43;;;11.90;99.90;;;;;;5014832;28;20490;-46
2021/05/26 01:40:11;;;;;;;1.77;0.90;;;12.10;99.90;;;;;;5014636;28;20492;-46
2021/05/26 01:42:38;;;;;;;2.90;1.30;;;11.70;99.90;;;;;;5032632;28;20513;-46
2021/05/26 01:45:07;;;;;;;2.00;1.30;;;11.90;99.90;;;;;;5014842;28;20445;-46
2021/05/26 01:47:33;;;;;;;1.13;0.87;;;11.90;99.90;;;;;;5032610;28;20978;-46
2021/05/26 01:50:00;;;;;;;5.37;1.20;;;11.80;99.90;;;;;;5032103;28;20429;-46
2021/05/26 01:52:27;;;;;;;1.57;1.20;;;12.10;99.90;;;;;;5014617;28;20459;-46
2021/05/26 01:54:53;;;;;;;1.97;1.40;;;12.00;99.90;;;;;;5032330;28;20434;-46
2021/05/26 01:57:21;;;;;;;2.97;1.13;;;12.40;99.90;;;;;;5014540;28;20472;-46
2021/05/26 01:59:49;;;;;;;1.90;1.70;;;12.40;99.90;;;;;;5014246;28;20461;-46
2021/05/26 02:02:19;;;;;;;2.57;1.30;;;12.20;99.90;;;;;;5014624;28;20455;-46
2021/05/26 02:04:45;;;;;;;1.97;1.13;;;12.40;99.90;;;;;;5032204;28;20474;-46
2021/05/26 02:07:12;;;;;;;2.70;1.40;;;12.50;99.90;;;;;;5032283;28;20435;-46
2021/05/26 02:09:40;;;;;;;2.47;1.00;;;12.10;99.90;;;;;;5014064;28;20468;-46
2021/05/26 02:12:21;;;;;;;2.03;1.23;;;12.10;99.90;;;;;;5014383;28;20506;-46
2021/05/26 02:14:50;;;;;;;2.87;1.33;;;12.00;99.90;;;;;;5014376;28;20431;-46
2021/05/26 02:17:17;;;;;;;2.30;1.47;;;12.00;99.90;;;;;;5014108;28;20571;-46
2021/05/26 02:19:43;;;;;;;2.23;1.37;;;12.30;99.90;;;;;;5035041;23;20543;-49
2021/05/26 02:22:10;;;;;;;2.63;1.20;;;12.10;99.90;;;;;;5011680;28;20799;-47
2021/05/26 02:24:37;;;;;;;1.90;1.20;;;12.20;99.90;;;;;;5030336;28;20793;-49
2021/05/26 02:27:03;;;;;;;3.90;1.50;;;11.60;99.90;;;;;;5012397;28;20445;-49
2021/05/26 02:29:30;;;;;;;2.23;1.10;;;12.20;99.90;;;;;;5012461;28;20979;-48
2021/05/26 02:31:57;;;;;;;6.10;1.47;;;12.20;99.90;;;;;;5030654;28;20432;-47
2021/05/26 02:34:23;;;;;;;2.40;1.60;;;12.00;99.90;;;;;;5030334;28;20468;-49
2021/05/26 02:36:50;;;;;;;3.30;1.60;;;11.90;99.90;;;;;;5030104;28;20558;-49
2021/05/26 02:39:19;;;;;;;3.40;1.60;;;12.00;99.90;;;;;;5011965;28;20540;-49
2021/05/26 02:41:45;;;;;;;2.27;1.77;;;11.90;99.90;;;;;;5012174;28;20458;-49
2021/05/26 02:44:15;;;;;;;3.20;1.63;;;12.00;99.90;;;;;;5029589;28;20432;-48
2021/05/26 02:46:42;;;;;;;3.10;1.67;;;12.10;99.90;;;;;;5012053;28;20456;-49
2021/05/26 02:49:09;;;;;;;3.23;2.03;;;11.80;99.90;;;;;;5029936;28;20470;-49
2021/05/26 02:51:36;;;;;;;2.83;1.30;;;11.90;99.90;;;;;;5030304;28;20809;-49
2021/05/26 02:54:04;;;;;;;2.80;1.30;;;11.80;99.90;;;;;;5030579;28;20961;-49
2021/05/26 02:56:31;;;;;;;2.63;1.50;;;12.00;99.90;;;;;;5012063;28;20569;-49
2021/05/26 02:59:29;;;;;;;1.93;1.37;;;11.80;99.90;;;;;;5029393;28;20626;-49
2021/05/26 03:02:19;;;;;;;2.00;1.47;;;12.00;99.90;;;;;;5011914;28;20544;-48
2021/05/26 03:04:52;;;;;;;3.73;1.53;;;12.10;99.90;;;;;;5030051;28;20431;-49
2021/05/26 03:07:18;;;;;;;3.13;2.10;;;11.60;99.90;;;;;;5029322;28;20428;-50
2021/05/26 03:09:45;;;;;;;3.67;1.67;;;11.60;99.90;;;;;;5029396;28;20461;-50
2021/05/26 03:12:12;;;;;;;4.50;1.33;;;12.10;99.90;;;;;;5029726;28;20488;-48
2021/05/26 03:14:44;;;;;;;2.93;1.80;;;11.90;99.90;;;;;;5011863;28;20451;-50
2021/05/26 03:17:10;;;;;;;4.50;1.60;;;11.80;99.90;;;;;;5029305;28;20466;-50
2021/05/26 03:19:38;;;;;;;5.70;1.90;;;12.10;99.90;;;;;;5028832;28;20555;-48
2021/05/26 03:22:31;;;;;;;2.33;1.20;;;11.70;99.90;;;;;;4994579;28;20547;-48
2021/05/26 03:25:35;;;;;;;2.67;1.53;;;11.80;99.90;;;;;;4930005;29;20449;-49
2021/05/26 03:28:08;;;;;;;1.90;1.50;;;12.00;99.90;;;;;;4929579;29;20796;-48
2021/05/26 03:30:35;;;;;;;3.10;1.50;;;11.90;99.90;;;;;;4980917;28;20493;-48
2021/05/26 03:33:03;;;;;;;2.43;1.57;;;12.00;99.90;;;;;;5030047;28;20523;-49
2021/05/26 03:35:32;;;;;;;5.27;2.10;;;12.00;99.90;;;;;;5015595;28;20652;-49
2021/05/26 03:38:01;;;;;;;4.47;1.77;;;12.10;99.90;;;;;;5032961;28;20467;-49
2021/05/26 03:40:29;;;;;;;4.33;1.87;;;12.00;99.90;;;;;;5015275;28;20586;-49
2021/05/26 03:42:59;;;;;;;3.43;2.00;;;11.90;99.90;;;;;;5015643;28;20474;-49
2021/05/26 03:45:35;;;;;;;4.27;1.97;;;11.90;99.90;;;;;;5015334;28;20480;-49
2021/05/26 03:48:03;;;;;;;3.60;2.03;;;11.90;99.90;;;;;;5032754;28;20450;-49
2021/05/26 03:50:30;;;;;;;3.93;2.00;;;12.00;99.90;;;;;;5015076;28;20546;-48
2021/05/26 03:52:57;;;;;;;2.40;1.70;;;12.10;99.90;;;;;;5033285;28;20497;-49
2021/05/26 03:55:26;;;;;;;3.63;1.87;;;12.10;99.90;;;;;;5015098;28;20448;-49
2021/05/26 03:58:04;;;;;;;3.90;1.80;;;11.90;99.90;;;;;;5014319;28;20567;-48
2021/05/26 04:00:30;;;;;;;2.60;1.50;;;12.10;99.90;;;;;;5014942;28;20494;-49
2021/05/26 04:03:14;;;;;;;4.20;2.00;;;11.90;99.90;;;;;;5014917;28;20547;-49
2021/05/26 04:05:40;;;;;;;3.10;1.50;;;12.30;99.90;;;;;;5014863;28;20483;-49
2021/05/26 04:08:07;;;;;;;2.97;1.90;;;12.30;99.90;;;;;;5032279;28;20458;-50
2021/05/26 04:10:37;;;;;;;7.87;2.47;;;12.30;99.90;;;;;;5014595;28;20510;-49
2021/05/26 04:13:17;;;;;;;4.77;2.10;;;12.30;99.90;;;;;;5014261;28;20974;-49
2021/05/26 04:15:53;;;;;;;4.43;1.70;;;12.50;99.90;;;;;;5014718;28;20449;-49
2021/05/26 04:18:33;;;;;;;4.57;2.20;;;12.60;99.90;;;;;;5014195;28;20602;-49
2021/05/26 04:20:59;;;;;;;2.00;1.60;;;12.90;99.90;;;;;;5014289;28;20455;-49
2021/05/26 04:23:25;;;;;;;4.27;1.63;;;12.80;99.90;;;;;;5032295;28;20780;-48
2021/05/26 04:26:02;;;;;;;3.67;2.13;;;12.90;99.90;;;;;;5032256;28;20463;-49
2021/05/26 04:28:28;;;;;;;5.27;1.73;;;12.80;99.90;;;;;;5032003;28;20510;-48
2021/05/26 04:30:54;;;;;;;2.93;2.30;;;12.80;99.90;;;;;;5014185;28;20481;-48
2021/05/26 04:33:27;;;;;;;3.90;2.10;;;12.80;99.90;;;;;;5032465;28;20489;-49
2021/05/26 04:35:53;;;;;;;2.50;2.13;;;12.80;99.90;;;;;;5032141;28;20922;-51
2021/05/26 04:38:19;;;;;;;2.77;1.93;;;12.50;99.90;;;;;;5031623;28;20492;-51
2021/05/26 04:40:46;;;;;;;3.70;1.90;;;12.60;99.90;;;;;;5032102;28;20438;-48
2021/05/26 04:43:13;;;;;;;3.73;2.17;;;12.50;99.90;;;;;;5032403;28;20435;-49
2021/05/26 04:45:39;;;;;;;6.77;3.13;;;12.70;99.90;;;;;;5030844;28;20438;-50
2021/05/26 04:48:06;;;;;;;7.97;2.70;;;13.00;99.90;;;;;;5031399;28;20553;-49
2021/05/26 04:50:32;;;;;;;6.10;3.13;;;12.80;99.90;;;;;;5032066;28;20751;-49
2021/05/26 04:52:58;;;;;;;3.40;2.00;;;12.80;99.90;;;;;;5031649;28;20471;-48
2021/05/26 04:55:24;;;;;;;7.13;2.23;;;12.90;99.90;;;;;;5031621;28;20439;-49
2021/05/26 04:57:57;;;;;;;4.33;2.20;;;13.30;99.90;;;;;;5031701;28;20471;-49
2021/05/26 05:00:26;;;;;;;6.80;2.50;;;13.20;99.90;;;;;;5031370;28;20920;-49
2021/05/26 05:02:52;;;;;;;4.43;2.90;;;13.40;99.90;;;;;;5031465;28;20465;-49
2021/05/26 05:05:18;;;;;;;5.37;1.97;;;13.70;99.90;;;;;;5031559;28;21046;-49
2021/05/26 05:07:44;;;;;;;4.30;2.07;;;13.60;99.90;;;;;;5031300;28;20486;-49
2021/05/26 05:10:11;;;;;;;3.90;2.47;;;13.70;99.90;;;;;;5030891;28;20430;-48
2021/05/26 05:12:37;;;;;;;3.30;2.33;;;13.70;99.90;;;;;;5031365;28;20456;-49
2021/05/26 05:15:05;;;;;;;2.50;2.07;;;13.60;99.90;;;;;;5013338;28;20555;-49
2021/05/26 05:17:32;;;;;;;5.87;2.47;;;13.70;99.90;;;;;;5030971;28;20481;-50
2021/05/26 05:19:58;;;;;;;5.70;2.50;;;13.70;99.90;;;;;;5030482;28;20464;-49
2021/05/26 05:22:24;;;;;;;6.87;2.70;;;13.60;99.90;;;;;;5030944;28;20462;-51
2021/05/26 05:24:50;;;;;;;3.40;2.70;;;14.00;99.90;;;;;;5031073;28;20445;-51
2021/05/26 05:27:17;;;;;;;5.57;2.50;;;13.40;99.90;;;;;;5030901;28;20435;-50
2021/05/26 05:29:43;;;;;;;3.97;2.50;;;14.10;99.90;;;;;;5030264;28;20451;-50
2021/05/26 05:32:09;;;;;;;2.47;2.27;;;13.80;99.90;;;;;;5030541;28;20798;-50
2021/05/26 05:34:36;;;;;;;3.30;2.37;;;14.20;99.90;;;;;;5030755;28;20568;-51
2021/05/26 05:37:02;;;;;;;6.77;3.00;;;14.00;99.90;;;;;;5012910;28;20991;-49
2021/05/26 05:39:29;;;;;;;2.77;2.50;;;14.10;99.90;;;;;;5030472;28;20577;-50
2021/05/26 05:41:55;;;;;;;2.97;2.50;;;14.10;99.90;;;;;;5030738;28;20608;-50
2021/05/26 05:44:21;;;;;;;5.67;2.30;;;14.40;99.90;;;;;;5030432;28;20434;-50
2021/05/26 05:46:47;;;;;;;7.60;3.17;;;14.00;99.90;;;;;;5030381;28;20817;-49
2021/05/26 05:49:13;;;;;;;4.40;2.97;;;14.30;99.90;;;;;;5012153;28;20552;-48
2021/05/26 05:51:40;;;;;;;5.70;3.17;;;13.80;99.90;;;;;;5030334;28;20491;-48
2021/05/26 05:54:07;;;;;;;7.07;2.60;;;14.50;99.90;;;;;;5030937;28;20537;-49
2021/05/26 05:56:33;;;;;;;4.67;3.07;;;14.30;99.90;;;;;;5030199;28;20433;-50
2021/05/26 05:58:59;;;;;;;4.60;2.87;;;14.50;99.90;;;;;;5029653;28;20458;-50
2021/05/26 06:01:25;;;;;;;8.13;3.70;;;14.50;99.70;;;;;;5030302;28;20443;-50
2021/05/26 06:03:52;;;;;;;7.57;4.37;;;14.70;99.60;;;;;;5029952;28;20477;-50
2021/05/26 06:06:18;;;;;;;3.90;2.37;;;14.60;99.60;;;;;;5030549;28;20445;-50
2021/05/26 06:08:45;;;;;;;6.23;2.97;;;14.40;99.10;;;;;;5029724;28;20493;-49
2021/05/26 06:11:11;;;;;;;3.87;2.30;;;14.00;98.80;;;;;;5030265;28;20532;-50
2021/05/26 06:13:38;;;;;;;4.47;2.33;;;14.60;99.30;;;;;;5030321;28;20443;-49
2021/05/26 06:16:04;;;;;;;4.87;2.93;;;14.70;99.00;;;;;;5030285;28;20437;-50
2021/05/26 06:18:30;;;;;;;10.13;5.30;;;14.60;98.90;;;;;;5029569;28;20546;-49
2021/05/26 06:20:57;;;;;;;9.00;6.33;;;14.60;98.70;;;;;;5030116;28;20528;-50
2021/05/26 06:23:23;;;;;;;9.10;5.07;;;14.70;98.70;;;;;;5029493;28;20435;-50
2021/05/26 06:25:50;;;;;;;13.23;4.17;;;14.70;98.30;;;;;;5011891;28;20462;-49
2021/05/26 06:28:16;;;;;;;6.13;4.50;;;14.70;98.20;;;;;;5028954;28;20478;-50
2021/05/26 06:30:42;;;;;;;8.50;3.57;;;14.70;98.10;;;;;;5029317;28;20446;-50
2021/05/26 06:33:09;;;;;;;6.67;2.80;;;14.40;98.30;;;;;;5029251;28;20448;-51
2021/05/26 06:35:35;;;;;;;5.33;3.33;;;14.50;98.30;;;;;;5029924;28;20935;-49
2021/05/26 06:38:01;;;;;;;4.50;3.13;;;14.70;98.40;;;;;;5029402;28;20558;-49
2021/05/26 06:40:27;;;;;;;6.77;2.30;;;14.80;98.20;;;;;;5029851;28;20461;-50
2021/05/26 06:42:54;;;;;;;4.57;2.93;;;14.90;98.20;;;;;;5029581;28;20456;-51
2021/05/26 06:45:20;;;;;;;4.07;2.10;;;15.30;98.00;;;;;;5029392;28;20533;-50
2021/05/26 06:47:47;;;;;;;5.47;2.50;;;15.10;97.90;;;;;;5029370;28;20492;-50
2021/05/26 06:50:13;;;;;;;4.80;3.10;;;15.10;97.40;;;;;;5028813;28;20486;-50
2021/05/26 06:52:40;;;;;;;7.03;3.10;;;14.80;97.20;;;;;;5029550;28;20432;-50
2021/05/26 06:55:07;;;;;;;6.43;2.40;;;15.30;97.20;;;;;;5029374;28;20529;-51
2021/05/26 06:57:33;;;;;;;12.87;2.77;;;15.10;97.20;;;;;;5029446;28;20572;-50
2021/05/26 07:00:00;;;;;;;5.90;2.77;;;15.20;97.10;;;;;;5028697;28;20470;-49
2021/05/26 07:02:26;;;;;;;6.10;3.10;;;15.40;97.00;;;;;;5029097;28;20795;-50
2021/05/26 07:04:52;;;;;;;7.27;2.83;;;15.90;96.70;;;;;;5011609;28;20453;-51
2021/05/26 07:07:19;;;;;;;6.17;3.83;;;15.80;96.10;;;;;;5029020;28;20923;-51
2021/05/26 07:09:47;;;;;;;5.80;2.67;;;15.80;95.40;;;;;;5032150;28;20512;-50
2021/05/26 07:12:13;;;;;;;6.67;3.17;;;15.60;95.40;;;;;;5033029;28;20484;-50
2021/05/26 07:14:41;;;;;;;4.97;2.40;;;15.80;95.60;;;;;;5033811;28;20442;-50
2021/05/26 07:17:08;;;;;;;2.90;2.60;;;15.80;95.60;;;;;;5033057;28;20495;-50
2021/05/26 07:19:34;;;;;;;5.83;2.40;;;15.90;95.40;;;;;;5032617;28;20502;-50
2021/05/26 07:22:01;;;;;;;4.40;2.07;;;16.40;95.20;;;;;;5033350;28;20439;-50
2021/05/26 07:24:27;;;;;;;15.40;2.80;;;15.90;94.40;;;;;;5015578;28;20459;-50
2021/05/26 07:26:53;;;;;;;10.40;2.30;;;16.10;94.00;;;;;;5033216;28;20439;-50
2021/05/26 07:29:21;;;;;;;6.77;2.70;;;16.10;93.50;;;;;;5032844;28;20794;-50
2021/05/26 07:31:47;;;;;;;3.90;2.07;;;16.10;93.80;;;;;;5033279;28;20848;-50
2021/05/26 07:34:14;;;;;;;3.53;2.50;;;16.30;93.80;;;;;;5033058;28;20514;-50
2021/05/26 07:36:41;;;;;;;6.83;2.70;;;15.90;93.00;;;;;;5015001;28;20535;-50
2021/05/26 07:39:08;;;;;;;3.97;2.20;;;16.20;93.20;;;;;;5032548;28;20455;-52
2021/05/26 07:41:34;;;;;;;4.53;2.67;;;16.40;92.80;;;;;;5032778;28;20481;-50
2021/05/26 07:44:00;;;;;;;2.90;2.60;;;16.40;92.60;;;;;;5032998;28;20499;-49
2021/05/26 07:46:27;;;;;;;4.17;2.10;;;16.60;92.40;;;;;;5014917;28;20454;-51
2021/05/26 07:48:53;;;;;;;3.80;2.70;;;16.40;91.40;;;;;;5032834;28;20560;-51
2021/05/26 07:51:27;;;;;;;4.20;2.83;;;16.60;91.40;;;;;;5033024;28;20443;-51
2021/05/26 07:53:53;;;;;;;4.77;2.37;;;16.60;91.20;;;;;;5032778;28;20524;-51
2021/05/26 07:56:20;;;;;;;8.27;2.80;;;16.60;91.20;;;;;;5032561;28;20442;-50
2021/05/26 07:58:46;;;;;;;5.93;2.57;;;16.80;90.80;;;;;;5032107;28;20553;-50
2021/05/26 08:01:12;;;;;;;6.93;3.13;;;16.70;90.70;;;;;;5032439;28;20427;-51
2021/05/26 08:03:38;;;;;;;10.23;3.00;;;16.70;90.30;;;;;;5032826;28;20423;-50
2021/05/26 08:06:05;;;;;;;14.17;12.07;;;17.20;90.00;;;;;;5033110;28;20428;-51
2021/05/26 08:08:34;;;;;;;5.60;3.53;;;17.10;89.80;;;;;;5032346;28;20449;-51
2021/05/26 08:11:01;;;;;;;3.60;2.20;;;17.70;90.00;;;;;;5032950;28;20436;-50
2021/05/26 08:13:27;;;;;;;6.37;3.00;;;17.10;89.10;;;;;;5033106;28;20458;-50
2021/05/26 08:15:53;;;;;;;3.60;2.23;;;17.30;89.00;;;;;;5032967;28;20547;-51
2021/05/26 08:18:20;;;;;;;4.20;2.00;;;17.50;87.60;;;;;;5055218;22;20891;-49
2021/05/26 08:20:47;;;;;;;5.37;2.00;;;17.40;87.20;;;;;;5034855;28;20757;-48
2021/05/26 08:23:13;;;;;;;3.93;2.00;;;17.30;86.90;;;;;;5034685;28;20453;-48
2021/05/26 08:25:41;;;;;;;4.60;2.13;;;17.20;87.30;;;;;;5035723;28;20798;-49
2021/05/26 08:28:07;;;;;;;3.80;2.00;;;17.10;86.90;;;;;;5034643;28;20560;-49
2021/05/26 08:30:34;;;;;;;5.30;2.17;;;17.10;87.10;;;;;;5035732;28;20437;-49
2021/05/26 08:33:01;;;;;;;3.70;1.80;;;17.00;87.20;;;;;;5034337;28;20440;-49
2021/05/26 08:35:27;;;;;;;6.13;2.50;;;17.00;87.50;;;;;;5034709;28;20810;-49
2021/05/26 08:37:53;;;;;;;2.40;1.80;;;17.00;87.70;;;;;;5034032;28;21000;-48
2021/05/26 08:40:21;;;;;;;4.40;2.20;;;17.00;87.70;;;;;;5033791;28;20462;-50
2021/05/26 08:42:51;;;;;;;3.10;2.23;;;17.00;87.30;;;;;;5034352;28;20799;-50
2021/05/26 08:45:19;;;;;;;6.83;2.30;;;17.30;86.90;;;;;;5033452;28;20550;-48
2021/05/26 08:47:45;;;;;;;4.47;2.27;;;17.30;85.80;;;;;;5034561;28;20921;-49
2021/05/26 08:50:14;;;;;;;4.90;1.97;;;17.00;84.70;;;;;;5033703;28;20483;-48
2021/05/26 08:52:41;;;;;;;7.27;2.50;;;17.70;84.50;;;;;;5034090;28;20909;-49
2021/05/26 08:55:10;;;;;;;7.07;2.50;;;17.10;83.40;;;;;;5034206;28;20469;-49
2021/05/26 08:57:37;;;;;;;4.27;2.20;;;17.70;84.10;;;;;;5033739;28;20999;-48
2021/05/26 09:00:07;;;;;;;4.43;2.27;;;17.50;83.80;;;;;;5033840;28;20463;-49
2021/05/26 09:02:33;;;;;;;5.50;2.43;;;17.50;82.70;;;;;;5034727;28;20434;-50
2021/05/26 09:04:59;;;;;;;3.53;2.10;;;17.90;82.60;;;;;;5034003;28;20433;-49
2021/05/26 09:07:29;;;;;;;3.43;2.13;;;17.80;82.20;;;;;;5034222;28;20446;-49
2021/05/26 09:09:58;;;;;;;7.13;2.60;;;17.60;81.00;;;;;;5033249;28;20469;-50
2021/05/26 09:12:29;;;;;;;4.93;2.10;;;18.00;80.90;;;;;;5033550;28;20492;-49
2021/05/26 09:15:00;;;;;;;2.57;1.67;;;18.20;80.50;;;;;;5033358;28;20496;-50
2021/05/26 09:17:30;;;;;;;7.00;3.10;;;18.20;79.60;;;;;;5033379;28;20989;-50
2021/05/26 09:20:18;;;;;;;4.87;2.17;;;18.30;78.60;;;;;;5032902;28;20823;-49
2021/05/26 09:23:18;;;;;;;4.73;2.00;;;18.50;78.10;;;;;;5033655;28;20798;-48
2021/05/26 09:25:54;;;;;;;6.30;2.23;;;18.50;77.60;;;;;;5032861;28;20453;-50
2021/05/26 09:28:23;;;;;;;5.00;2.23;;;18.10;77.70;;;;;;5033192;28;20445;-49
2021/05/26 09:30:52;;;;;;;5.60;1.97;;;18.20;76.40;;;;;;5032722;28;20829;-49
2021/05/26 09:33:38;;;;;;;5.07;2.13;;;18.00;77.00;;;;;;5032425;28;20808;-49
2021/05/26 09:36:21;;;;;;;3.60;1.50;;;17.60;77.70;;;;;;5032970;28;21002;-48
2021/05/26 09:38:52;;;;;;;5.23;1.60;;;17.60;78.90;;;;;;5032624;28;20516;-48
2021/05/26 09:41:21;;;;;;;5.93;1.80;;;17.60;78.60;;;;;;5032896;28;20472;-48
2021/05/26 09:43:49;;;;;;;4.03;1.93;;;17.70;76.90;;;;;;5033063;28;20521;-50
2021/05/26 09:46:24;;;;;;;6.00;1.80;;;17.50;77.00;;;;;;5032684;28;20438;-50
2021/05/26 09:49:05;;;;;;;4.77;1.50;;;17.80;77.40;;;;;;5033985;28;20587;-48
2021/05/26 09:51:34;;;;;;;7.57;2.33;;;17.70;77.40;;;;;;5035756;28;20833;-48
2021/05/26 09:54:08;;;;;;;3.83;2.00;;;17.90;77.70;;;;;;5033522;28;21004;-49
2021/05/26 09:56:34;;;;;;;5.33;2.23;;;17.80;77.50;;;;;;5032672;28;20525;-47
2021/05/26 09:59:02;;;;;;;3.20;1.87;;;17.80;77.40;;;;;;5032767;28;20485;-48
2021/05/26 10:01:28;;;;;;;5.07;2.40;;;17.90;76.90;;;;;;5032949;28;20930;-49
2021/05/26 10:03:55;;;;;;;5.53;2.40;;;18.10;76.70;;;;;;5032500;28;20487;-50
2021/05/26 10:06:23;;;;;;;4.50;2.00;;;18.10;76.40;;;;;;5032225;28;20510;-49
2021/05/26 10:09:11;;;;;;;3.40;2.00;;;18.00;76.30;;;;;;5031890;28;21027;-49
2021/05/26 10:11:58;;;;;;;3.50;1.73;;;17.70;76.70;;;;;;5031611;28;20460;-48
2021/05/26 10:14:25;;;;;;;3.30;1.90;;;18.10;79.10;;;;;;5014265;28;20480;-48
2021/05/26 10:16:54;;;;;;;3.43;1.60;;;18.10;78.10;;;;;;5032236;28;20438;-49
2021/05/26 10:19:20;;;;;;;3.40;2.30;;;18.40;76.60;;;;;;5031954;28;20473;-49
2021/05/26 10:21:48;;;;;;;5.00;1.83;;;18.10;75.80;;;;;;5032524;28;20487;-49
2021/05/26 10:24:17;;;;;;;2.50;1.30;;;18.00;76.20;;;;;;5032430;28;20456;-50
2021/05/26 10:26:59;;;;;;;4.30;1.93;;;17.60;76.00;;;;;;5032721;28;20472;-48
2021/05/26 10:29:36;;;;;;;4.13;2.83;;;18.00;76.20;;;;;;5031402;28;20523;-48
2021/05/26 10:32:05;;;;;;;4.53;2.40;;;17.90;75.70;;;;;;5032854;28;20465;-49
2021/05/26 10:35:02;;;;;;;4.93;2.10;;;18.00;74.60;;;;;;5031767;28;20493;-48
2021/05/26 10:37:32;;;;;;;4.70;2.00;;;18.00;73.70;;;;;;5031954;28;20474;-49
2021/05/26 10:39:59;;;;;;;2.77;1.60;;;18.20;73.70;;;;;;5031585;28;20457;-50
2021/05/26 10:42:27;;;;;;;6.80;2.03;;;17.80;74.00;;;;;;5032256;28;20434;-49
2021/05/26 10:44:58;;;;;;;4.97;2.17;;;17.80;74.10;;;;;;5013460;28;20495;-50
2021/05/26 10:47:43;;;;;;;3.80;2.07;;;18.10;73.80;;;;;;5031983;28;20474;-49
2021/05/26 10:50:15;;;;;;;3.87;1.80;;;18.30;74.40;;;;;;5031506;28;21088;-49
2021/05/26 10:53:14;;;;;;;4.60;1.80;;;17.90;74.90;;;;;;5031564;28;21014;-49
2021/05/26 10:55:42;;;;;;;5.30;2.77;;;18.00;75.80;;;;;;5031704;28;20439;-48
2021/05/26 10:58:17;;;;;;;2.90;1.50;;;17.80;76.00;;;;;;5031609;28;20600;-49
2021/05/26 11:00:44;;;;;;;4.10;2.10;;;17.90;76.10;;;;;;5032009;28;20444;-49
2021/05/26 11:03:31;;;;;;;2.73;1.80;;;18.20;76.60;;;;;;5031775;28;20530;-50
2021/05/26 11:05:58;;;;;;;6.83;3.10;;;18.20;76.70;;;;;;5031673;28;20950;-50
2021/05/26 11:08:34;;;;;;;6.33;2.10;;;18.50;77.00;;;;;;5030644;28;20436;-49
2021/05/26 11:11:38;;;;;;;3.23;1.73;;;18.50;77.20;;;;;;5032173;28;20460;-49
2021/05/26 11:14:26;;;;;;;5.00;1.90;;;18.50;77.50;;;;;;5014299;28;20430;-49
2021/05/26 11:17:23;;;;;;;3.83;2.30;;;18.30;77.80;;;;;;5031934;28;20873;-48
2021/05/26 11:19:50;;;;;;;5.80;2.40;;;18.20;78.20;;;;;;5031370;28;20466;-49
2021/05/26 11:22:23;;;;;;;4.60;2.30;;;18.20;78.50;;;;;;5032496;28;20968;-49
2021/05/26 11:24:52;;;;;;;5.87;2.37;;;18.10;77.80;;;;;;5032140;28;20437;-49
2021/05/26 11:27:20;;;;;;;3.40;1.90;;;18.10;77.70;;;;;;5031859;28;20840;-50
2021/05/26 11:29:49;;;;;;;5.17;2.30;;;18.30;77.90;;;;;;5031833;28;20468;-49
2021/05/26 11:32:17;;;;;;;4.73;1.97;;;18.50;78.40;;;;;;5032001;28;20524;-50
2021/05/26 11:34:45;;;;;;;3.60;2.10;;;18.60;77.90;;;;;;5031731;28;21021;-49
2021/05/26 11:37:12;;;;;;;5.73;2.10;;;18.60;77.90;;;;;;5031474;28;20889;-49
2021/05/26 11:39:39;;;;;;;3.53;2.13;;;19.00;77.70;;;;;;5031692;28;20552;-50
2021/05/26 11:42:10;;;;;;;2.60;1.67;;;18.80;76.50;;;;;;5031649;28;20438;-50
2021/05/26 11:44:37;;;;;;;5.60;2.20;;;18.80;75.70;;;;;;5031410;28;20481;-50
2021/05/26 11:47:04;;;;;;;5.40;2.20;;;19.10;76.10;;;;;;5031115;28;20439;-50
2021/05/26 11:49:32;;;;;;;2.33;1.63;;;18.80;75.30;;;;;;5013011;28;20477;-52
2021/05/26 11:52:02;;;;;;;3.47;1.40;;;18.80;73.20;;;;;;5030876;28;20441;-51
2021/05/26 11:54:28;;;;;;;5.27;2.43;;;19.10;71.90;;;;;;5032399;28;20433;-50
2021/05/26 11:56:59;;;;;;;5.50;2.23;;;19.00;68.80;;;;;;5035095;28;20596;-51
2021/05/26 11:59:28;;;;;;;2.90;1.80;;;19.00;68.20;;;;;;5034654;28;20454;-51
2021/05/26 12:01:54;;;;;;;5.13;1.70;;;19.30;67.00;;;;;;5034800;28;20450;-50
2021/05/26 12:04:21;;;;;;;3.20;0.90;;;19.30;66.90;;;;;;5034713;28;20430;-50
2021/05/26 12:06:48;;;;;;;3.60;1.40;;;19.40;67.30;;;;;;5035009;28;20446;-48
2021/05/26 12:09:27;;;;;;;2.63;1.30;;;19.30;67.50;;;;;;5034248;28;20542;-51
2021/05/26 12:11:53;;;;;;;2.33;1.00;;;19.40;68.20;;;;;;5034595;28;20470;-49
2021/05/26 12:14:28;;;;;;;3.60;1.37;;;19.50;69.10;;;;;;5034470;28;20522;-49
2021/05/26 12:16:55;;;;;;;6.37;1.60;;;19.10;69.50;;;;;;5034495;28;20445;-50
2021/05/26 12:19:27;;;;;;;3.70;1.20;;;19.60;71.30;;;;;;5033757;28;20565;-50
2021/05/26 12:22:07;;;;;;;3.63;1.97;;;19.90;70.80;;;;;;5034855;28;20438;-49
2021/05/26 12:24:52;;;;;;;13.90;2.67;;;19.30;70.00;;;;;;5034628;28;20431;-50
2021/05/26 12:27:37;;;;;;;4.33;1.10;;;19.40;68.80;;;;;;5034449;28;20463;-49
2021/05/26 12:30:22;;;;;;;1.93;1.27;;;19.40;68.60;;;;;;5033932;28;20463;-49
2021/05/26 12:32:50;;;;;;;1.67;1.00;;;19.00;66.60;;;;;;5034960;28;20431;-50
2021/05/26 12:35:19;;;;;;;3.10;1.30;;;19.30;66.70;;;;;;5016115;28;20470;-49
2021/05/26 12:37:47;;;;;;;2.47;1.53;;;19.20;66.50;;;;;;5033529;28;20529;-49
2021/05/26 12:40:27;;;;;;;3.43;1.20;;;19.00;66.70;;;;;;5033569;28;20460;-50
2021/05/26 12:42:55;;;;;;;2.80;1.00;;;19.40;67.60;;;;;;5033987;28;20434;-49
2021/05/26 12:45:25;;;;;;;1.73;1.00;;;19.10;66.30;;;;;;5033837;28;20521;-49
2021/05/26 12:47:52;;;;;;;4.17;1.70;;;19.10;65.80;;;;;;5034320;28;20431;-49
2021/05/26 12:50:21;;;;;;;2.23;1.20;;;18.80;65.00;;;;;;5034204;28;20458;-50
2021/05/26 12:52:50;;;;;;;1.20;0.70;;;19.10;65.20;;;;;;5034373;28;20799;-49
2021/05/26 12:55:17;;;;;;;3.73;1.83;;;18.90;65.00;;;;;;5034112;28;20532;-50
2021/05/26 12:57:43;;;;;;;3.33;1.63;;;19.40;65.90;;;;;;5032989;28;20504;-49